Terminal Aerodrome Forecast
Issued by NWS Jackson, MS

Home | Current Version | Previous Version | Text Only | Print | Product List | Glossary On
Versions: 1 2 3 4 5 6 7 8 9 10 11 12 13 14 15 16 17 18
000
FTUS44 KJAN 021100
TAFJAN
TAF
KJAN 021126Z 0212/0312 16006KT P6SM VCSH OVC009
     FM021530 17009KT P6SM VCTS SCT030 BKN045CB
     FM030000 18008KT P6SM BKN050
     FM030900 20008KT 4SM TSRA BKN015 OVC025CB=

USA.gov is the U.S. government's official web portal to all federal, state and local government web resources and services.